Flight Track Log - Related Links

Times and Time Zones

All times are in EDT time to prevent confusion due to time zone crossing. See the FDX584 flight status page for this flight to view local times or setup timezone preferences in your user account.

Time Position Orientation Groundspeed Altitude Reporting Facility
EDT Latitude Longitude Course Direction KTS MPH feet Rate Location/Type
Sun 05:53:26 PM 35.0333 -89.9833 180° South 135 155 1,200  Level KMEM
Sun 05:54:26 PM 34.9833 -89.9833 180° South 195 224 2,900 2,700 Climbing KMEM
Sun 05:55:26 PM 34.9333 -90.0500 228° Southwest 271 312 6,600 3,296 Climbing KMEM
Sun 05:57:08 PM 34.9947 -90.1922 298° West 295 339 11,800 3,037 Climbing Memphis Center
Sun 05:58:08 PM 35.1033 -90.2047 355° North 324 373 14,800 7,400 Climbing Memphis Center
Sun 06:00:08 PM 35.3367 -90.1561 10° North 414 476 34,000 2,733 Climbing Memphis Center
Sun 06:01:08 PM 35.4411 -90.2269 331° Northwest 402 463 23,000 -5,200 Descending Memphis Center
Sun 06:02:08 PM 35.5122 -90.3417 307° West 402 463 23,600 1,450 Climbing Memphis Center
Sun 06:03:08 PM 35.5850 -90.4542 309° West 421 484 25,900 2,250 Climbing Memphis Center
Sun 06:04:08 PM 35.6642 -90.5767 309° West 441 507 28,100 2,300 Climbing Memphis Center
Sun 06:05:08 PM 35.7350 -90.6972 306° West 448 516 30,500 2,100 Climbing Memphis Center
Sun 06:06:08 PM 35.7992 -90.8022 307° West 443 510 32,300 1,750 Climbing Memphis Center
Sun 06:07:08 PM 35.8739 -90.9206 308° West 438 504 34,000 850 Climbing Memphis Center
Sun 06:08:08 PM 35.9544 -91.0289 313° West 438 504 34,000  Level Memphis Center
Sun 06:09:08 PM 36.0353 -91.1297 315° West 427 491 34,000  Level Memphis Center
Sun 06:10:08 PM 36.1203 -91.2281 317° Northwest 421 484 34,000  Level Memphis Center
Sun 06:11:08 PM 36.2008 -91.3292 315° West 414 476 34,000  Level Memphis Center
Sun 06:12:08 PM 36.2853 -91.4331 315° West 414 476 34,000  Level Memphis Center
Sun 06:13:08 PM 36.3719 -91.5375 316° Northwest 414 476 34,000  Level Memphis Center
Sun 06:14:08 PM 36.4564 -91.6419 315° West 419 482 34,000  Level Memphis Center
Sun 06:15:08 PM 36.5531 -91.7597 316° Northwest 426 490 34,000 -771 Level Memphis Center
Sun 06:20:58 PM 37.0160 -92.3370 316° Northwest 34,000 -791 Level FlightAware ADS-B
Sun 06:21:28 PM 37.0510 -92.3810 315° West 34,000 -930 Level FlightAware ADS-B
Sun 06:23:43 PM 37.2230 -92.5990 315° West 34,000 -944 Level FlightAware ADS-B
Sun 06:25:38 PM 37.3620 -92.7760 315° West 34,000 -1,014 Level FlightAware ADS-B
Sun 06:31:03 PM 37.7670 -93.2990 314° West 34,000 -1,082 Level FlightAware ADS-B
Sun 06:32:18 PM 37.8630 -93.4250 314° West 33,500 -1,335 Descending FlightAware ADS-B
Sun 06:35:38 PM 38.1500 -93.7750 316° Northwest 29,800 -1,388 Descending FlightAware ADS-B
Sun 06:36:23 PM 38.2360 -93.8310 333° Northwest 29,000 -1,438 Descending FlightAware ADS-B
Sun 06:37:03 PM 38.3100 -93.8700 338° Northwest 28,100 -1,454 Descending FlightAware ADS-B
Sun 06:37:43 PM 38.3860 -93.9130 336° Northwest 26,400 -1,458 Descending FlightAware ADS-B
Sun 06:38:18 PM 38.4500 -93.9500 336° Northwest 24,900 -1,414 Descending FlightAware ADS-B
Sun 06:39:08 PM 38.5400 -94.0010 336° Northwest 22,900 -1,371 Descending FlightAware ADS-B
Sun 06:39:53 PM 38.6170 -94.0450 336° Northwest 21,100 -1,314 Descending FlightAware ADS-B
Sun 06:40:33 PM 38.6830 -94.0850 335° Northwest 19,500 -1,257 Descending FlightAware ADS-B
Sun 06:41:13 PM 38.7400 -94.1430 322° Northwest 18,300 -1,201 Descending FlightAware ADS-B
Sun 06:41:58 PM 38.8030 -94.2120 320° Northwest 16,800 -1,171 Descending FlightAware ADS-B
Sun 06:42:38 PM 38.8540 -94.2670 320° Northwest 15,600 -1,120 Descending FlightAware ADS-B
Sun 06:43:18 PM 38.9060 -94.3230 320° Northwest 15,400 -1,081 Descending FlightAware ADS-B
Sun 06:44:03 PM 38.9650 -94.3830 322° Northwest 15,400 -1,128 Level FlightAware ADS-B
Sun 06:44:18 PM 38.9920 -94.3940 342° North 15,400 -1,212 Level FlightAware ADS-B
Sun 06:44:58 PM 39.0620 -94.4110 349° North 15,400 -1,242 Level FlightAware ADS-B
Sun 06:45:43 PM 39.1370 -94.4270 351° North 15,200 -1,332 Descending FlightAware ADS-B
Sun 06:46:23 PM 39.1940 -94.4400 350° North 14,700 -1,426 Descending FlightAware ADS-B
Sun 06:47:03 PM 39.2470 -94.4520 350° North 13,500 -1,484 Descending FlightAware ADS-B
Sun 06:47:38 PM 39.2920 -94.4600 352° North 12,200 -1,455 Descending FlightAware ADS-B
Sun 06:48:03 PM 39.3270 -94.4570 North 11,500 -1,386 Descending FlightAware ADS-B
Sun 06:48:43 PM 39.3790 -94.4510 North 10,400 -1,366 Descending FlightAware ADS-B
Sun 06:49:08 PM 39.4090 -94.4470 North 9,300 -1,331 Descending FlightAware ADS-B
Sun 06:49:23 PM 39.4260 -94.4460 North 8,800 -1,224 Descending FlightAware ADS-B
Sun 06:49:53 PM 39.4580 -94.4430 North 7,900 -1,183 Descending FlightAware ADS-B
Sun 06:50:23 PM 39.4930 -94.4420 North 7,000 -1,112 Descending FlightAware ADS-B
Sun 06:50:48 PM 39.5160 -94.4570 333° Northwest 6,100 -1,022 Descending FlightAware ADS-B
Sun 06:50:58 PM 39.5190 -94.4670 291° West 5,800 -882 Descending FlightAware ADS-B
Sun 06:52:13 PM 39.5110 -94.5410 262° West 5,400 -835 Descending FlightAware ADS-B
Sun 06:52:23 PM 39.5080 -94.5510 249° West 5,400 -1,160 Level FlightAware ADS-B
Sun 06:53:33 PM 39.4730 -94.6080 232° Southwest 4,000 -1,266 Descending FlightAware ADS-B
Sun 06:54:12 PM 39.4544 -94.6303 232° Southwest 170 196 3,100 -600 Descending Kansas City Center
Sun 06:55:13 PM 39.4214 -94.6672 221° Southwest 166 191 3,000 -443 Descending Kansas City Center
Sun 06:56:14 PM 39.3803 -94.6989 211° Southwest 155 178 2,200 -720 Descending Kansas City Center
Sun 06:57:18 PM 39.3492 -94.7133 200° South 129 148 1,500 -619 Descending Kansas City Center
Sun 06:58:20 PM 39.3094 -94.7258 194° South 133 153 900 -581 Descending Kansas City Center

Login

Don't have an account? Register now (free) for customized features, flight alerts, and more!